Terminal Aerodrome Forecast
Issued by NWS Sioux Falls, SD

Home | Current Version | Previous Version | Graphics & Text | Print | Product List | Glossary On
Versions: 1 2 3 4 5 6 7 8 9 10 11 12 13 14 15 16 17 18 19
000
FTUS43 KFSD 292320
TAFHON
TAF
KHON 292320Z 3000/3024 09010KT P6SM BKN150
     FM300600 11012G18KT P6SM OVC015
     FM301300 12015G25KT 5SM SHRA BR OVC012
     FM301800 13016G25KT P6SM SCT035=

USA.gov is the U.S. government's official web portal to all federal, state and local government web resources and services.